createdAt,value
2023-05-14T00:00:48.081Z,100.00
2023-05-14T00:03:20.233Z,100.00
2023-05-14T00:05:48.216Z,100.00
2023-05-14T00:08:21.623Z,100.00
2023-05-14T00:10:48.497Z,100.00
2023-05-14T00:13:28.458Z,100.00
2023-05-14T00:16:01.408Z,100.00
2023-05-14T00:18:28.544Z,100.00
2023-05-14T00:20:56.259Z,100.00
2023-05-14T00:23:26.716Z,100.00
2023-05-14T00:25:56.312Z,100.00
2023-05-14T00:28:23.189Z,100.00
2023-05-14T00:30:50.713Z,100.00
2023-05-14T00:33:19.827Z,100.00
2023-05-14T00:35:46.806Z,100.00
2023-05-14T00:38:19.668Z,100.00
2023-05-14T00:40:51.420Z,100.00
2023-05-14T00:43:22.882Z,100.00
2023-05-14T00:45:58.649Z,100.00
2023-05-14T00:48:26.416Z,100.00
2023-05-14T00:50:59.102Z,100.00
2023-05-14T00:53:27.373Z,100.00
2023-05-14T00:55:58.793Z,100.00
2023-05-14T00:58:28.848Z,100.00
2023-05-14T01:00:56.282Z,100.00
2023-05-14T01:03:30.708Z,100.00
2023-05-14T01:06:43.965Z,100.00
2023-05-14T01:09:56.431Z,100.00
2023-05-14T01:13:06.697Z,100.00
2023-05-14T01:15:41.356Z,100.00
2023-05-14T01:18:13.641Z,100.00
2023-05-14T01:20:40.676Z,100.00
2023-05-14T01:23:07.725Z,100.00
2023-05-14T01:25:35.449Z,100.00
2023-05-14T01:28:31.420Z,100.00
2023-05-14T01:31:17.637Z,100.00
2023-05-14T01:33:48.729Z,100.00
2023-05-14T01:36:18.953Z,100.00
2023-05-14T01:38:49.581Z,100.00
2023-05-14T01:41:19.625Z,100.00
2023-05-14T01:43:47.141Z,100.00
2023-05-14T01:46:14.075Z,100.00
2023-05-14T01:48:41.433Z,100.00
2023-05-14T01:51:08.618Z,100.00
2023-05-14T01:53:35.366Z,100.00
2023-05-14T01:56:02.540Z,100.00
2023-05-14T01:58:31.943Z,100.00
2023-05-14T02:00:58.789Z,100.00
2023-05-14T02:03:26.623Z,100.00
2023-05-14T02:05:54.093Z,100.00
2023-05-14T02:08:21.274Z,100.00
2023-05-14T02:10:47.991Z,100.00
2023-05-14T02:13:14.791Z,100.00
2023-05-14T02:15:41.575Z,100.00
2023-05-14T02:18:08.421Z,100.00
2023-05-14T02:20:35.265Z,100.00
2023-05-14T02:23:02.071Z,100.00
2023-05-14T02:25:28.913Z,100.00
2023-05-14T02:27:55.784Z,100.00
2023-05-14T02:30:23.137Z,100.00
2023-05-14T02:32:50.488Z,100.00
2023-05-14T02:35:20.527Z,100.00
2023-05-14T02:37:49.932Z,100.00
2023-05-14T02:40:20.339Z,100.00
2023-05-14T02:42:47.223Z,100.00
2023-05-14T02:45:14.219Z,100.00
2023-05-14T02:47:41.124Z,100.00
2023-05-14T02:50:11.395Z,100.00
2023-05-14T02:52:38.249Z,100.00
2023-05-14T02:55:14.551Z,100.00
2023-05-14T02:57:41.529Z,100.00
2023-05-14T03:00:09.594Z,100.00
2023-05-14T03:02:36.721Z,100.00
2023-05-14T03:05:06.886Z,100.00
2023-05-14T03:07:33.632Z,100.00
2023-05-14T03:10:00.799Z,100.00
2023-05-14T03:12:28.887Z,100.00
2023-05-14T03:14:55.799Z,100.00
2023-05-14T03:17:28.914Z,100.00
2023-05-14T03:19:55.716Z,100.00
2023-05-14T03:22:26.265Z,100.00
2023-05-14T03:24:54.721Z,100.00
2023-05-14T03:27:24.056Z,100.00
2023-05-14T03:29:50.767Z,100.00
2023-05-14T03:32:20.034Z,100.00
2023-05-14T03:34:47.259Z,100.00
2023-05-14T03:37:14.143Z,100.00
2023-05-14T03:39:41.048Z,100.00
2023-05-14T03:42:08.085Z,100.00
2023-05-14T03:44:35.059Z,100.00
2023-05-14T03:47:02.011Z,100.00
2023-05-14T03:49:29.013Z,100.00
2023-05-14T03:51:58.198Z,100.00
2023-05-14T03:54:26.607Z,100.00
2023-05-14T03:56:53.570Z,100.00
2023-05-14T03:59:23.990Z,100.00
2023-05-14T04:01:50.965Z,100.00
2023-05-14T04:04:17.788Z,100.00
2023-05-14T04:06:47.721Z,100.00
2023-05-14T04:09:14.651Z,100.00
2023-05-14T04:11:41.324Z,100.00
2023-05-14T04:14:08.234Z,100.00
2023-05-14T04:16:41.309Z,100.00
2023-05-14T04:19:14.094Z,100.00
2023-05-14T04:21:43.873Z,100.00
2023-05-14T04:24:10.805Z,100.00
2023-05-14T04:26:37.603Z,100.00
2023-05-14T04:29:12.111Z,100.00
2023-05-14T04:31:43.404Z,100.00
2023-05-14T04:34:10.304Z,100.00
2023-05-14T04:36:42.528Z,100.00
2023-05-14T05:17:51.955Z,74.91
2023-05-14T05:33:50.898Z,70.90
2023-05-14T05:58:09.376Z,60.17
2023-05-14T06:08:59.031Z,55.08
2023-05-14T06:14:16.422Z,53.02
2023-05-14T06:46:52.255Z,48.53
2023-05-14T06:57:40.783Z,48.52
2023-05-14T07:35:29.295Z,42.09
2023-05-14T07:37:56.145Z,43.83
2023-05-14T07:40:26.556Z,44.34
2023-05-14T07:42:55.477Z,44.99
2023-05-14T07:45:22.527Z,42.42
2023-05-14T07:47:52.402Z,44.18
2023-05-14T07:50:24.185Z,41.76
2023-05-14T07:52:51.204Z,42.94
2023-05-14T07:55:18.268Z,44.45
2023-05-14T07:57:45.709Z,40.70
2023-05-14T08:00:13.991Z,41.67
2023-05-14T08:06:33.507Z,42.30
2023-05-14T08:09:09.914Z,41.75
2023-05-14T08:11:39.417Z,39.28
2023-05-14T08:14:14.107Z,36.57
2023-05-14T08:16:41.161Z,38.21
2023-05-14T08:19:08.072Z,39.26
2023-05-14T08:21:35.710Z,37.97
2023-05-14T08:24:05.298Z,35.93
2023-05-14T08:26:42.970Z,35.77
2023-05-14T08:29:11.001Z,42.04
2023-05-14T08:31:41.613Z,35.44
2023-05-14T08:34:08.502Z,37.17
2023-05-14T08:36:39.658Z,38.07
2023-05-14T08:39:09.489Z,37.96
2023-05-14T08:41:37.871Z,36.95
2023-05-14T08:44:22.332Z,37.23
2023-05-14T08:46:52.117Z,34.89
2023-05-14T08:49:48.389Z,38.40
2023-05-14T08:52:23.344Z,37.88
2023-05-14T08:54:55.954Z,40.80
2023-05-14T08:57:26.598Z,40.03
2023-05-14T08:59:57.228Z,39.35
2023-05-14T09:02:31.413Z,40.28
2023-05-14T09:05:02.596Z,38.73
2023-05-14T09:07:30.438Z,37.98
2023-05-14T09:09:57.379Z,38.63
2023-05-14T09:12:24.320Z,34.25
2023-05-14T09:14:51.831Z,33.38
2023-05-14T09:17:22.753Z,32.15
2023-05-14T09:19:53.570Z,33.30
2023-05-14T09:22:21.522Z,33.09
2023-05-14T09:25:14.804Z,33.16
2023-05-14T09:27:41.936Z,32.90
2023-05-14T09:30:36.908Z,33.24
2023-05-14T09:33:09.294Z,33.25
2023-05-14T09:35:50.691Z,33.23
2023-05-14T09:38:50.753Z,32.55
2023-05-14T09:41:23.134Z,32.89
2023-05-14T09:43:51.808Z,31.16
2023-05-14T09:46:22.686Z,31.16
2023-05-14T09:48:50.730Z,31.28
2023-05-14T09:51:19.969Z,30.61
2023-05-14T09:53:47.252Z,30.24
2023-05-14T09:56:17.549Z,29.90
2023-05-14T09:59:02.707Z,31.90
2023-05-14T10:02:18.034Z,30.14
2023-05-14T10:05:14.151Z,29.36
2023-05-14T10:07:56.793Z,28.31
2023-05-14T10:10:58.859Z,29.34
2023-05-14T10:13:49.521Z,27.60
2023-05-14T10:16:38.523Z,26.50
2023-05-14T10:22:19.953Z,29.13
2023-05-14T10:24:47.463Z,27.27
2023-05-14T10:27:17.124Z,27.56
2023-05-14T10:30:02.536Z,30.55
2023-05-14T10:32:40.571Z,25.59
2023-05-14T10:35:23.135Z,26.70
2023-05-14T10:37:59.409Z,27.07
2023-05-14T10:40:51.607Z,27.34
2023-05-14T10:43:21.454Z,26.96
2023-05-14T10:45:50.480Z,27.04
2023-05-14T10:48:46.887Z,27.29
2023-05-14T10:51:16.906Z,28.78
2023-05-14T10:53:46.071Z,26.72
2023-05-14T10:56:19.998Z,26.94
2023-05-14T10:59:02.369Z,24.50
2023-05-14T11:01:34.231Z,26.67
2023-05-14T11:04:09.006Z,26.79
2023-05-14T11:06:47.502Z,26.36
2023-05-14T11:09:20.330Z,27.17
2023-05-14T11:11:58.642Z,26.35
2023-05-14T11:14:25.698Z,27.01
2023-05-14T11:18:15.786Z,25.45
2023-05-14T11:20:02.477Z,25.66
2023-05-14T11:22:45.952Z,25.66
2023-05-14T11:25:14.692Z,26.02
2023-05-14T11:27:50.213Z,28.10
2023-05-14T11:30:23.038Z,28.52
2023-05-14T11:36:22.301Z,26.10
2023-05-14T11:38:53.654Z,23.67
2023-05-14T11:42:18.826Z,25.60
2023-05-14T11:44:56.859Z,24.53
2023-05-14T11:52:28.043Z,25.99
2023-05-14T11:55:08.833Z,25.59
2023-05-14T11:58:11.485Z,24.24
2023-05-14T12:00:59.780Z,24.26
2023-05-14T12:03:29.694Z,24.32
2023-05-14T12:06:09.097Z,25.19
2023-05-14T12:09:08.332Z,25.09
2023-05-14T12:11:57.528Z,25.21
2023-05-14T12:14:28.842Z,24.68
2023-05-14T12:16:58.127Z,25.83
2023-05-14T12:19:28.955Z,23.87
2023-05-14T12:22:03.414Z,24.68
2023-05-14T12:24:38.157Z,24.02
2023-05-14T12:27:07.560Z,25.02
2023-05-14T12:29:46.855Z,25.44
2023-05-14T12:32:14.992Z,25.50
2023-05-14T12:34:59.815Z,27.01
2023-05-14T12:37:36.501Z,26.04
2023-05-14T12:40:14.492Z,27.38
2023-05-14T12:42:44.138Z,30.29
2023-05-14T12:45:15.223Z,30.30
2023-05-14T12:47:42.024Z,30.24
2023-05-14T12:50:09.669Z,30.92
2023-05-14T12:52:48.803Z,32.92
2023-05-14T12:55:16.942Z,32.52
2023-05-14T12:57:56.381Z,31.35
2023-05-14T13:00:23.882Z,30.43
2023-05-14T13:05:44.318Z,32.65
2023-05-14T13:08:11.273Z,33.16
2023-05-14T13:10:38.147Z,34.80
2023-05-14T13:13:11.979Z,35.92
2023-05-14T13:15:57.416Z,36.09
2023-05-14T13:18:26.640Z,35.26
2023-05-14T13:21:12.644Z,33.77
2023-05-14T13:24:02.168Z,33.26
2023-05-14T13:26:40.191Z,34.44
2023-05-14T13:29:14.589Z,37.01
2023-05-14T13:31:41.587Z,38.37
2023-05-14T13:34:14.786Z,39.03
2023-05-14T13:36:43.827Z,39.79
2023-05-14T13:39:18.434Z,40.37
2023-05-14T13:41:50.757Z,39.70
2023-05-14T13:44:17.631Z,39.98
2023-05-14T13:46:44.686Z,40.79
2023-05-14T13:49:22.922Z,41.46
2023-05-14T13:52:13.436Z,41.56
2023-05-14T13:54:46.201Z,41.19
2023-05-14T13:57:13.115Z,39.07
2023-05-14T13:59:40.540Z,39.95
2023-05-14T14:02:17.837Z,39.62
2023-05-14T14:04:44.689Z,39.25
2023-05-14T14:07:11.569Z,39.46
2023-05-14T14:09:41.303Z,40.06
2023-05-14T14:12:09.118Z,40.34
2023-05-14T14:14:36.037Z,40.59
2023-05-14T14:17:03.084Z,39.72
2023-05-14T14:19:30.122Z,40.71
2023-05-14T14:21:56.988Z,40.24
2023-05-14T14:24:23.830Z,40.30
2023-05-14T14:26:50.828Z,40.72
2023-05-14T14:29:17.600Z,41.26
2023-05-14T14:31:44.487Z,41.52
2023-05-14T14:34:11.485Z,42.29
2023-05-14T14:36:38.469Z,43.59
2023-05-14T14:39:06.185Z,42.74
2023-05-14T14:41:35.897Z,41.29
2023-05-14T14:44:08.623Z,41.37
2023-05-14T16:43:06.164Z,41.54
2023-05-14T16:45:50.841Z,42.13
2023-05-14T17:01:56.104Z,42.41
2023-05-14T17:15:14.091Z,45.77
2023-05-14T17:17:41.349Z,46.19
2023-05-14T18:06:22.536Z,54.17
2023-05-14T18:54:55.954Z,96.81
2023-05-14T19:08:29.608Z,100.00
2023-05-14T19:19:02.730Z,100.00
2023-05-14T19:21:43.632Z,100.00
2023-05-14T19:29:37.149Z,100.00
2023-05-14T19:34:53.918Z,100.00
2023-05-14T19:40:09.798Z,100.00
2023-05-14T19:58:45.988Z,100.00
2023-05-14T20:23:11.207Z,100.00
2023-05-14T20:25:38.134Z,100.00
2023-05-14T20:28:07.295Z,100.00
2023-05-14T20:30:39.674Z,100.00
2023-05-14T20:33:09.629Z,100.00
2023-05-14T20:35:36.746Z,100.00
2023-05-14T20:38:06.520Z,100.00
2023-05-14T20:40:39.827Z,100.00
2023-05-14T20:43:12.443Z,100.00
2023-05-14T20:45:39.629Z,100.00
2023-05-14T20:48:11.427Z,100.00
2023-05-14T20:50:41.728Z,100.00
2023-05-14T20:53:14.344Z,100.00
2023-05-14T20:55:41.487Z,100.00
2023-05-14T20:58:11.539Z,100.00
2023-05-14T21:00:40.642Z,100.00
2023-05-14T21:03:07.543Z,100.00
2023-05-14T21:05:35.250Z,100.00
2023-05-14T21:08:01.995Z,100.00
2023-05-14T21:10:37.044Z,100.00
2023-05-14T21:13:10.953Z,100.00
2023-05-14T21:15:37.813Z,100.00
2023-05-14T21:18:05.176Z,100.00
2023-05-14T21:20:32.230Z,100.00
2023-05-14T21:22:59.209Z,100.00
2023-05-14T21:25:28.935Z,100.00
2023-05-14T21:27:59.022Z,100.00
2023-05-14T21:30:25.948Z,100.00
2023-05-14T21:32:55.724Z,100.00
2023-05-14T21:35:22.831Z,100.00
2023-05-14T21:37:53.220Z,100.00
2023-05-14T21:40:20.229Z,100.00
2023-05-14T21:42:47.230Z,100.00
2023-05-14T21:45:13.944Z,100.00
2023-05-14T21:47:57.046Z,100.00
2023-05-14T21:50:38.468Z,100.00
2023-05-14T21:53:08.794Z,100.00
2023-05-14T21:55:36.065Z,100.00
2023-05-14T21:58:03.524Z,100.00
2023-05-14T22:00:38.089Z,100.00
2023-05-14T22:03:08.113Z,100.00
2023-05-14T22:05:35.312Z,100.00
2023-05-14T22:08:02.196Z,100.00
2023-05-14T22:10:32.796Z,100.00
2023-05-14T22:12:59.465Z,100.00
2023-05-14T22:15:29.169Z,100.00
2023-05-14T22:17:56.900Z,100.00
2023-05-14T22:20:23.846Z,100.00
2023-05-14T22:23:03.329Z,100.00
2023-05-14T22:25:30.270Z,100.00
2023-05-14T22:28:00.367Z,100.00
2023-05-14T22:30:27.156Z,100.00
2023-05-14T22:32:56.789Z,100.00
2023-05-14T22:35:26.710Z,100.00
2023-05-14T22:37:56.569Z,100.00
2023-05-14T22:40:23.384Z,100.00
2023-05-14T22:42:50.367Z,100.00
2023-05-14T22:45:20.230Z,100.00
2023-05-14T22:47:47.045Z,100.00
2023-05-14T22:50:14.115Z,100.00
2023-05-14T22:52:41.673Z,100.00
2023-05-14T22:55:09.248Z,100.00
2023-05-14T22:57:38.792Z,100.00
2023-05-14T23:00:09.971Z,100.00
2023-05-14T23:02:36.820Z,100.00
2023-05-14T23:05:06.599Z,100.00
2023-05-14T23:07:33.830Z,100.00
2023-05-14T23:10:03.522Z,100.00
2023-05-14T23:12:36.644Z,100.00
2023-05-14T23:15:07.266Z,100.00
2023-05-14T23:17:34.404Z,100.00
2023-05-14T23:20:01.147Z,100.00
2023-05-14T23:22:28.275Z,100.00
2023-05-14T23:25:07.816Z,100.00
2023-05-14T23:27:35.698Z,100.00
2023-05-14T23:30:07.134Z,100.00
2023-05-14T23:32:33.973Z,100.00
2023-05-14T23:35:02.844Z,100.00
2023-05-14T23:37:30.020Z,100.00
2023-05-14T23:39:59.854Z,100.00
2023-05-14T23:42:26.628Z,100.00
2023-05-14T23:44:56.387Z,100.00
2023-05-14T23:47:26.328Z,100.00
2023-05-14T23:49:55.570Z,100.00
2023-05-14T23:52:22.411Z,100.00
2023-05-14T23:54:49.329Z,100.00
2023-05-14T23:57:16.234Z,100.00
2023-05-14T23:59:43.031Z,100.00
